sensor_id;sensor_type;location;lat;lon;timestamp;pressure;altitude;pressure_sealevel;temperature;humidity
65131;BME280;51709;54.912;8.316;2023-02-18T00:00:42;101405.03;;;6.01;74.67
65131;BME280;51709;54.912;8.316;2023-02-18T00:06:19;101381.19;;;5.96;74.72
65131;BME280;51709;54.912;8.316;2023-02-18T00:11:40;101406.72;;;6.00;74.76
65131;BME280;51709;54.912;8.316;2023-02-18T00:17:01;101407.53;;;5.96;75.00
65131;BME280;51709;54.912;8.316;2023-02-18T00:22:22;101398.22;;;5.98;74.98
65131;BME280;51709;54.912;8.316;2023-02-18T00:27:43;101409.22;;;5.96;75.12
65131;BME280;51709;54.912;8.316;2023-02-18T00:33:04;101397.34;;;5.98;75.13
65131;BME280;51709;54.912;8.316;2023-02-18T00:38:25;101410.13;;;5.99;75.18
65131;BME280;51709;54.912;8.316;2023-02-18T00:43:47;101385.50;;;6.00;75.23
65131;BME280;51709;54.912;8.316;2023-02-18T00:49:08;101392.34;;;6.04;75.29
65131;BME280;51709;54.912;8.316;2023-02-18T00:54:29;101391.38;;;5.96;75.68
65131;BME280;51709;54.912;8.316;2023-02-18T00:59:49;101396.59;;;6.07;75.53
65131;BME280;51709;54.912;8.316;2023-02-18T01:05:11;101388.94;;;6.05;75.54
65131;BME280;51709;54.912;8.316;2023-02-18T01:10:33;101390.63;;;6.06;75.63
65131;BME280;51709;54.912;8.316;2023-02-18T01:15:54;101376.22;;;6.10;75.43
65131;BME280;51709;54.912;8.316;2023-02-18T01:21:15;101378.75;;;6.07;75.50
65131;BME280;51709;54.912;8.316;2023-02-18T01:26:36;101388.06;;;6.06;75.47
65131;BME280;51709;54.912;8.316;2023-02-18T01:31:57;101389.75;;;5.99;75.80
65131;BME280;51709;54.912;8.316;2023-02-18T01:37:18;101378.69;;;6.00;76.05
65131;BME280;51709;54.912;8.316;2023-02-18T01:42:40;101403.34;;;6.01;75.87
65131;BME280;51709;54.912;8.316;2023-02-18T01:53:59;101376.09;;;5.93;76.49
65131;BME280;51709;54.912;8.316;2023-02-18T01:59:27;101376.91;;;5.90;76.34
65131;BME280;51709;54.912;8.316;2023-02-18T02:04:50;101376.09;;;5.94;76.39
65131;BME280;51709;54.912;8.316;2023-02-18T02:10:12;101376.09;;;5.93;76.46
65131;BME280;51709;54.912;8.316;2023-02-18T02:15:43;101373.44;;;5.83;76.65
65131;BME280;51709;54.912;8.316;2023-02-18T02:26:59;101386.16;;;5.76;76.90
65131;BME280;51709;54.912;8.316;2023-02-18T02:32:44;101388.63;;;5.69;77.13
65131;BME280;51709;54.912;8.316;2023-02-18T02:38:23;101375.09;;;5.77;76.99
65131;BME280;51709;54.912;8.316;2023-02-18T02:49:48;101374.31;;;5.84;77.11
65131;BME280;51709;54.912;8.316;2023-02-18T02:55:13;101367.53;;;5.84;77.35
65131;BME280;51709;54.912;8.316;2023-02-18T03:12:34;101371.78;;;5.85;77.44
65131;BME280;51709;54.912;8.316;2023-02-18T03:18:00;101358.19;;;5.85;77.61
65131;BME280;51709;54.912;8.316;2023-02-18T03:23:28;101344.63;;;5.88;77.38
65131;BME280;51709;54.912;8.316;2023-02-18T03:28:54;101342.06;;;5.89;77.69
65131;BME280;51709;54.912;8.316;2023-02-18T03:34:23;101342.88;;;5.83;78.01
65131;BME280;51709;54.912;8.316;2023-02-18T03:39:48;101320.84;;;5.85;77.90
65131;BME280;51709;54.912;8.316;2023-02-18T03:45:10;101313.19;;;5.85;78.14
65131;BME280;51709;54.912;8.316;2023-02-18T03:50:33;101305.56;;;5.87;77.90
65131;BME280;51709;54.912;8.316;2023-02-18T03:55:54;101300.44;;;5.85;78.04
65131;BME280;51709;54.912;8.316;2023-02-18T04:01:15;101304.72;;;5.85;78.36
65131;BME280;51709;54.912;8.316;2023-02-18T04:06:36;101299.63;;;5.90;78.16
65131;BME280;51709;54.912;8.316;2023-02-18T04:11:57;101297.91;;;5.85;78.23
65131;BME280;51709;54.912;8.316;2023-02-18T04:17:18;101295.34;;;5.85;78.45
65131;BME280;51709;54.912;8.316;2023-02-18T04:22:39;101289.41;;;5.88;78.53
65131;BME280;51709;54.912;8.316;2023-02-18T04:28:00;101282.66;;;5.87;78.61
65131;BME280;51709;54.912;8.316;2023-02-18T04:33:21;101271.63;;;5.91;78.46
65131;BME280;51709;54.912;8.316;2023-02-18T04:38:41;101269.06;;;5.90;78.66
65131;BME280;51709;54.912;8.316;2023-02-18T04:44:02;101242.75;;;5.92;78.80
65131;BME280;51709;54.912;8.316;2023-02-18T04:49:23;101242.78;;;5.94;78.59
65131;BME280;51709;54.912;8.316;2023-02-18T04:54:44;101239.38;;;5.96;78.81
65131;BME280;51709;54.912;8.316;2023-02-18T05:00:07;101236.03;;;6.00;78.81
65131;BME280;51709;54.912;8.316;2023-02-18T05:05:28;101238.59;;;6.02;78.91
65131;BME280;51709;54.912;8.316;2023-02-18T05:10:49;101217.38;;;6.03;78.97
65131;BME280;51709;54.912;8.316;2023-02-18T05:16:09;101200.38;;;6.04;78.99
65131;BME280;51709;54.912;8.316;2023-02-18T05:21:31;101183.38;;;6.07;78.77
65131;BME280;51709;54.912;8.316;2023-02-18T05:26:52;101180.84;;;6.06;79.19
65131;BME280;51709;54.912;8.316;2023-02-18T05:32:13;101174.91;;;6.05;79.18
65131;BME280;51709;54.912;8.316;2023-02-18T05:37:34;101174.06;;;6.14;78.77
65131;BME280;51709;54.912;8.316;2023-02-18T05:42:54;101168.13;;;6.13;78.93
65131;BME280;51709;54.912;8.316;2023-02-18T05:48:15;101176.63;;;6.08;79.06
65131;BME280;51709;54.912;8.316;2023-02-18T05:53:36;101160.50;;;6.13;79.00
65131;BME280;51709;54.912;8.316;2023-02-18T05:58:56;101176.63;;;6.14;79.00
65131;BME280;51709;54.912;8.316;2023-02-18T06:04:17;101164.72;;;6.08;79.12
65131;BME280;51709;54.912;8.316;2023-02-18T06:09:38;101163.84;;;6.06;79.38
65131;BME280;51709;54.912;8.316;2023-02-18T06:14:58;101150.28;;;5.99;79.52
65131;BME280;51709;54.912;8.316;2023-02-18T06:20:19;101133.28;;;6.00;79.41
65131;BME280;51709;54.912;8.316;2023-02-18T06:25:40;101138.34;;;5.98;79.63
65131;BME280;51709;54.912;8.316;2023-02-18T06:31:02;101151.06;;;5.97;79.45
65131;BME280;51709;54.912;8.316;2023-02-18T06:36:22;101127.25;;;5.84;79.90
65131;BME280;51709;54.912;8.316;2023-02-18T06:41:43;101120.38;;;5.61;80.60
65131;BME280;51709;54.912;8.316;2023-02-18T06:47:03;101124.56;;;5.45;80.93
65131;BME280;51709;54.912;8.316;2023-02-18T06:52:24;101111.81;;;5.44;80.97
65131;BME280;51709;54.912;8.316;2023-02-18T06:57:44;101116.91;;;5.42;80.89
65131;BME280;51709;54.912;8.316;2023-02-18T07:03:05;101112.66;;;5.41;80.73
65131;BME280;51709;54.912;8.316;2023-02-18T07:08:26;101096.53;;;5.37;80.69
65131;BME280;51709;54.912;8.316;2023-02-18T07:13:46;101080.38;;;5.35;80.68
65131;BME280;51709;54.912;8.316;2023-02-18T07:19:07;101063.41;;;5.33;80.67
65131;BME280;51709;54.912;8.316;2023-02-18T07:24:28;101050.69;;;5.36;80.66
65131;BME280;51709;54.912;8.316;2023-02-18T07:29:49;101045.63;;;5.37;80.48
65131;BME280;51709;54.912;8.316;2023-02-18T07:35:12;101040.56;;;5.40;80.40
65131;BME280;51709;54.912;8.316;2023-02-18T07:40:33;101032.03;;;5.37;80.87
65131;BME280;51709;54.912;8.316;2023-02-18T07:45:54;101038.88;;;5.44;80.71
65131;BME280;51709;54.912;8.316;2023-02-18T07:51:14;101030.38;;;5.51;80.61
65131;BME280;51709;54.912;8.316;2023-02-18T07:56:35;101029.59;;;5.63;80.08
65131;BME280;51709;54.912;8.316;2023-02-18T08:01:56;101032.09;;;5.62;80.08
65131;BME280;51709;54.912;8.316;2023-02-18T08:07:18;101012.53;;;5.42;80.50
65131;BME280;51709;54.912;8.316;2023-02-18T08:12:40;101014.22;;;5.35;80.85
65131;BME280;51709;54.912;8.316;2023-02-18T08:18:00;101017.63;;;5.42;80.65
65131;BME280;51709;54.912;8.316;2023-02-18T08:23:21;101026.13;;;5.41;80.80
65131;BME280;51709;54.912;8.316;2023-02-18T08:28:43;101021.88;;;5.49;80.63
65131;BME280;51709;54.912;8.316;2023-02-18T08:34:04;101024.44;;;5.54;80.65
65131;BME280;51709;54.912;8.316;2023-02-18T08:39:24;101024.44;;;5.54;80.82
65131;BME280;51709;54.912;8.316;2023-02-18T08:44:45;101018.47;;;5.47;81.18
65131;BME280;51709;54.912;8.316;2023-02-18T08:50:05;101007.50;;;5.54;80.90
65131;BME280;51709;54.912;8.316;2023-02-18T08:55:26;100991.41;;;5.63;80.82
65131;BME280;51709;54.912;8.316;2023-02-18T09:00:47;100995.63;;;5.77;80.62
65131;BME280;51709;54.912;8.316;2023-02-18T09:06:08;100986.31;;;5.82;80.56
65131;BME280;51709;54.912;8.316;2023-02-18T09:11:29;100979.50;;;5.82;80.63
65131;BME280;51709;54.912;8.316;2023-02-18T09:16:49;100967.63;;;5.84;80.61
65131;BME280;51709;54.912;8.316;2023-02-18T09:22:10;100958.34;;;6.05;80.15
65131;BME280;51709;54.912;8.316;2023-02-18T09:27:31;100965.13;;;6.03;80.02
65131;BME280;51709;54.912;8.316;2023-02-18T09:32:51;100960.00;;;5.92;80.44
65131;BME280;51709;54.912;8.316;2023-02-18T09:38:14;100950.66;;;5.86;80.78
65131;BME280;51709;54.912;8.316;2023-02-18T09:43:39;100942.19;;;5.94;80.60
65131;BME280;51709;54.912;8.316;2023-02-18T09:49:07;100943.91;;;5.99;80.41
65131;BME280;51709;54.912;8.316;2023-02-18T09:54:32;100937.97;;;6.02;80.37
65131;BME280;51709;54.912;8.316;2023-02-18T09:59:57;100927.75;;;6.08;80.29
65131;BME280;51709;54.912;8.316;2023-02-18T10:05:19;100916.69;;;6.29;79.76
65131;BME280;51709;54.912;8.316;2023-02-18T10:10:45;100920.06;;;6.33;79.65
65131;BME280;51709;54.912;8.316;2023-02-18T10:16:06;100915.00;;;6.22;80.09
65131;BME280;51709;54.912;8.316;2023-02-18T10:21:33;100920.09;;;6.22;80.09
65131;BME280;51709;54.912;8.316;2023-02-18T10:26:56;100929.44;;;6.26;80.00
65131;BME280;51709;54.912;8.316;2023-02-18T10:32:26;100954.06;;;6.12;80.13
65131;BME280;51709;54.912;8.316;2023-02-18T10:55:04;100980.41;;;6.29;79.39
65131;BME280;51709;54.912;8.316;2023-02-18T11:00:26;100965.97;;;6.31;79.19
65131;BME280;51709;54.912;8.316;2023-02-18T11:05:49;100952.34;;;6.31;78.82
65131;BME280;51709;54.912;8.316;2023-02-18T11:11:17;100927.75;;;6.21;79.13
65131;BME280;51709;54.912;8.316;2023-02-18T11:16:44;100898.00;;;6.27;78.96
65131;BME280;51709;54.912;8.316;2023-02-18T11:22:13;100931.94;;;6.39;78.76
65131;BME280;51709;54.912;8.316;2023-02-18T11:27:41;100968.47;;;6.53;78.56
65131;BME280;51709;54.912;8.316;2023-02-18T11:33:08;100972.69;;;6.65;78.26
65131;BME280;51709;54.912;8.316;2023-02-18T11:38:40;100983.69;;;6.76;78.11
65131;BME280;51709;54.912;8.316;2023-02-18T11:44:17;100991.31;;;6.92;78.06
65131;BME280;51709;54.912;8.316;2023-02-18T11:49:43;100997.28;;;6.92;78.27
65131;BME280;51709;54.912;8.316;2023-02-18T11:55:21;100979.34;;;7.11;77.93
65131;BME280;51709;54.912;8.316;2023-02-18T12:00:46;100974.91;;;7.47;77.10
65131;BME280;51709;54.912;8.316;2023-02-18T12:06:17;100969.38;;;8.92;73.54
65131;BME280;51709;54.912;8.316;2023-02-18T12:11:47;100971.38;;;10.90;68.44
65131;BME280;51709;54.912;8.316;2023-02-18T12:46:11;101015.34;;;9.67;73.94
65131;BME280;51709;54.912;8.316;2023-02-18T12:51:37;100991.41;;;12.27;67.42
65131;BME280;51709;54.912;8.316;2023-02-18T12:57:24;101001.47;;;14.13;61.56
65131;BME280;51709;54.912;8.316;2023-02-18T13:03:02;101000.72;;;20.05;48.78
65131;BME280;51709;54.912;8.316;2023-02-18T13:09:07;100996.31;;;23.54;41.27
65131;BME280;51709;54.912;8.316;2023-02-18T13:14:42;101008.59;;;25.26;37.89
65131;BME280;51709;54.912;8.316;2023-02-18T13:20:17;101017.88;;;22.96;41.42
65131;BME280;51709;54.912;8.316;2023-02-18T13:25:38;101021.53;;;17.73;53.21
65131;BME280;51709;54.912;8.316;2023-02-18T13:47:41;101048.31;;;9.92;71.59
65131;BME280;51709;54.912;8.316;2023-02-18T13:58:44;101069.34;;;7.52;77.76
65131;BME280;51709;54.912;8.316;2023-02-18T14:09:58;101087.47;;;6.70;78.39
65131;BME280;51709;54.912;8.316;2023-02-18T14:20:48;101081.47;;;6.01;78.45
65131;BME280;51709;54.912;8.316;2023-02-18T14:31:48;101118.66;;;5.55;77.86
65131;BME280;51709;54.912;8.316;2023-02-18T14:48:41;101143.94;;;5.24;77.77
65131;BME280;51709;54.912;8.316;2023-02-18T14:54:09;101166.84;;;5.21;77.93
65131;BME280;51709;54.912;8.316;2023-02-18T14:59:40;101179.50;;;5.14;77.60
65131;BME280;51709;54.912;8.316;2023-02-18T15:05:12;101182.91;;;5.11;77.59
65131;BME280;51709;54.912;8.316;2023-02-18T15:10:45;101186.28;;;5.13;77.48
65131;BME280;51709;54.912;8.316;2023-02-18T15:16:18;101202.50;;;5.28;77.05
65131;BME280;51709;54.912;8.316;2023-02-18T15:21:42;101199.22;;;5.46;76.57
65131;BME280;51709;54.912;8.316;2023-02-18T15:27:16;101215.28;;;5.35;76.60
65131;BME280;51709;54.912;8.316;2023-02-18T15:32:37;101214.34;;;5.25;76.88
65131;BME280;51709;54.912;8.316;2023-02-18T15:37:59;101217.72;;;5.23;76.84
65131;BME280;51709;54.912;8.316;2023-02-18T15:43:22;101232.97;;;5.18;76.96
65131;BME280;51709;54.912;8.316;2023-02-18T15:48:46;101227.09;;;5.27;76.64
65131;BME280;51709;54.912;8.316;2023-02-18T15:54:19;101229.56;;;5.16;76.89
65131;BME280;51709;54.912;8.316;2023-02-18T15:59:53;101252.38;;;5.08;77.08
65131;BME280;51709;54.912;8.316;2023-02-18T16:05:14;101260.06;;;5.13;76.81
65131;BME280;51709;54.912;8.316;2023-02-18T16:16:04;101245.59;;;5.04;77.02
65131;BME280;51709;54.912;8.316;2023-02-18T16:21:45;101246.34;;;4.96;77.47
65131;BME280;51709;54.912;8.316;2023-02-18T16:27:14;101256.41;;;4.85;77.42
65131;BME280;51709;54.912;8.316;2023-02-18T16:32:39;101252.09;;;4.74;77.57
65131;BME280;51709;54.912;8.316;2023-02-18T16:38:20;101263.09;;;4.72;77.51
65131;BME280;51709;54.912;8.316;2023-02-18T16:43:41;101264.72;;;4.67;77.92
65131;BME280;51709;54.912;8.316;2023-02-18T16:49:02;101272.38;;;4.70;77.65
65131;BME280;51709;54.912;8.316;2023-02-18T16:54:23;101276.50;;;4.58;78.21
65131;BME280;51709;54.912;8.316;2023-02-18T16:59:43;101284.13;;;4.57;78.11
65131;BME280;51709;54.912;8.316;2023-02-18T17:05:05;101292.63;;;4.62;77.85
65131;BME280;51709;54.912;8.316;2023-02-18T17:10:36;101296.94;;;4.68;77.86
65131;BME280;51709;54.912;8.316;2023-02-18T17:15:57;101310.47;;;4.63;78.18
65131;BME280;51709;54.912;8.316;2023-02-18T17:21:21;101320.63;;;4.63;78.11
65131;BME280;51709;54.912;8.316;2023-02-18T17:26:43;101328.31;;;4.70;78.03
65131;BME280;51709;54.912;8.316;2023-02-18T17:32:05;101340.97;;;4.63;78.32
65131;BME280;51709;54.912;8.316;2023-02-18T17:37:27;101356.25;;;4.67;78.34
65131;BME280;51709;54.912;8.316;2023-02-18T17:42:48;101363.09;;;4.71;78.32
65131;BME280;51709;54.912;8.316;2023-02-18T17:48:09;101370.63;;;4.65;78.34
65131;BME280;51709;54.912;8.316;2023-02-18T17:53:29;101386.84;;;4.73;78.26
65131;BME280;51709;54.912;8.316;2023-02-18T17:58:50;101374.09;;;4.71;78.30
65131;BME280;51709;54.912;8.316;2023-02-18T18:04:15;101389.38;;;4.73;78.39
65131;BME280;51709;54.912;8.316;2023-02-18T18:09:37;101386.00;;;4.74;78.50
65131;BME280;51709;54.912;8.316;2023-02-18T18:14:58;101384.34;;;4.79;78.45
65131;BME280;51709;54.912;8.316;2023-02-18T18:20:21;101375.84;;;4.75;78.53
65131;BME280;51709;54.912;8.316;2023-02-18T18:25:48;101391.06;;;4.72;78.68
65131;BME280;51709;54.912;8.316;2023-02-18T18:31:12;101405.47;;;4.70;78.55
65131;BME280;51709;54.912;8.316;2023-02-18T18:36:34;101405.47;;;4.73;78.66
65131;BME280;51709;54.912;8.316;2023-02-18T18:41:55;101417.34;;;4.74;78.67
65131;BME280;51709;54.912;8.316;2023-02-18T18:47:15;101401.22;;;4.71;78.86
65131;BME280;51709;54.912;8.316;2023-02-18T18:52:36;101414.78;;;4.71;78.95
65131;BME280;51709;54.912;8.316;2023-02-18T18:57:57;101418.19;;;4.72;78.89
65131;BME280;51709;54.912;8.316;2023-02-18T19:03:20;101425.03;;;4.76;78.92
65131;BME280;51709;54.912;8.316;2023-02-18T19:08:41;101420.00;;;4.81;78.84
65131;BME280;51709;54.912;8.316;2023-02-18T19:14:02;101416.63;;;4.85;78.89
65131;BME280;51709;54.912;8.316;2023-02-18T19:19:23;101420.84;;;4.83;78.92
65131;BME280;51709;54.912;8.316;2023-02-18T19:24:43;101414.19;;;4.92;78.69
65131;BME280;51709;54.912;8.316;2023-02-18T19:30:06;101407.34;;;4.88;79.00
65131;BME280;51709;54.912;8.316;2023-02-18T19:35:28;101411.59;;;4.86;79.18
65131;BME280;51709;54.912;8.316;2023-02-18T19:40:49;101418.38;;;4.89;79.26
65131;BME280;51709;54.912;8.316;2023-02-18T19:46:12;101418.44;;;4.93;79.20
65131;BME280;51709;54.912;8.316;2023-02-18T19:51:33;101428.66;;;4.97;79.19
65131;BME280;51709;54.912;8.316;2023-02-18T19:56:53;101421.09;;;5.03;79.26
65131;BME280;51709;54.912;8.316;2023-02-18T20:02:18;101412.66;;;5.07;79.00
65131;BME280;51709;54.912;8.316;2023-02-18T20:07:40;101418.56;;;5.04;79.17
65131;BME280;51709;54.912;8.316;2023-02-18T20:13:02;101416.00;;;5.03;79.21
65131;BME280;51709;54.912;8.316;2023-02-18T20:18:25;101418.53;;;5.00;79.38
65131;BME280;51709;54.912;8.316;2023-02-18T20:23:46;101416.81;;;5.00;79.23
65131;BME280;51709;54.912;8.316;2023-02-18T20:29:07;101414.22;;;4.96;79.53
65131;BME280;51709;54.912;8.316;2023-02-18T20:34:28;101414.19;;;4.92;79.63
65131;BME280;51709;54.912;8.316;2023-02-18T20:39:49;101413.31;;;4.90;79.59
65131;BME280;51709;54.912;8.316;2023-02-18T20:45:10;101414.13;;;4.88;79.77
65131;BME280;51709;54.912;8.316;2023-02-18T20:50:31;101409.09;;;4.91;79.73
65131;BME280;51709;54.912;8.316;2023-02-18T20:55:52;101416.72;;;4.92;79.67
65131;BME280;51709;54.912;8.316;2023-02-18T21:01:14;101420.16;;;4.94;79.61
65131;BME280;51709;54.912;8.316;2023-02-18T21:06:35;101422.69;;;4.93;79.74
65131;BME280;51709;54.912;8.316;2023-02-18T21:11:56;101421.81;;;4.92;79.74
65131;BME280;51709;54.912;8.316;2023-02-18T21:17:17;101432.81;;;4.91;79.95
65131;BME280;51709;54.912;8.316;2023-02-18T21:22:38;101445.59;;;4.94;79.77
65131;BME280;51709;54.912;8.316;2023-02-18T21:27:59;101434.59;;;4.97;79.85
65131;BME280;51709;54.912;8.316;2023-02-18T21:33:20;101449.81;;;4.94;79.97
65131;BME280;51709;54.912;8.316;2023-02-18T21:38:42;101440.59;;;5.02;79.51
65131;BME280;51709;54.912;8.316;2023-02-18T21:44:04;101449.84;;;4.96;80.05
65131;BME280;51709;54.912;8.316;2023-02-18T21:49:25;101442.31;;;5.05;79.62
65131;BME280;51709;54.912;8.316;2023-02-18T21:54:46;101432.03;;;4.96;79.99
65131;BME280;51709;54.912;8.316;2023-02-18T22:00:07;101413.41;;;4.98;80.12
65131;BME280;51709;54.912;8.316;2023-02-18T22:05:39;101404.16;;;5.03;80.13
65131;BME280;51709;54.912;8.316;2023-02-18T22:11:05;101393.97;;;5.03;80.20
65131;BME280;51709;54.912;8.316;2023-02-18T22:16:26;101412.63;;;5.04;80.28
65131;BME280;51709;54.912;8.316;2023-02-18T22:21:48;101419.41;;;5.03;80.41
65131;BME280;51709;54.912;8.316;2023-02-18T22:27:10;101397.41;;;5.08;80.35
65131;BME280;51709;54.912;8.316;2023-02-18T22:32:31;101393.19;;;5.12;80.35
65131;BME280;51709;54.912;8.316;2023-02-18T22:37:51;101385.59;;;5.15;80.31
65131;BME280;51709;54.912;8.316;2023-02-18T22:43:12;101385.63;;;5.18;80.37
65131;BME280;51709;54.912;8.316;2023-02-18T22:48:34;101388.19;;;5.18;80.43
65131;BME280;51709;54.912;8.316;2023-02-18T22:53:56;101384.84;;;5.22;80.38
65131;BME280;51709;54.912;8.316;2023-02-18T22:59:18;101396.69;;;5.23;80.35
65131;BME280;51709;54.912;8.316;2023-02-18T23:04:38;101406.06;;;5.26;80.34
65131;BME280;51709;54.912;8.316;2023-02-18T23:10:00;101407.78;;;5.29;80.44
65131;BME280;51709;54.912;8.316;2023-02-18T23:15:21;101414.59;;;5.28;80.49
65131;BME280;51709;54.912;8.316;2023-02-18T23:20:42;101423.94;;;5.31;80.38
65131;BME280;51709;54.912;8.316;2023-02-18T23:26:24;101425.59;;;5.30;80.47
65131;BME280;51709;54.912;8.316;2023-02-18T23:31:44;101426.53;;;5.34;80.57
65131;BME280;51709;54.912;8.316;2023-02-18T23:37:05;101430.78;;;5.35;80.34
65131;BME280;51709;54.912;8.316;2023-02-18T23:42:26;101432.53;;;5.40;80.41
65131;BME280;51709;54.912;8.316;2023-02-18T23:47:47;101438.41;;;5.38;80.48
65131;BME280;51709;54.912;8.316;2023-02-18T23:53:07;101437.53;;;5.36;80.42
65131;BME280;51709;54.912;8.316;2023-02-18T23:58:28;101440.97;;;5.38;80.42
